sensor_id;sensor_type;location;lat;lon;timestamp;temperature;humidity
70456;DHT22;57916;51.996;5.180;2022-12-18T00:01:20;1.00;72.80
70456;DHT22;57916;51.996;5.180;2022-12-18T00:03:51;1.00;72.90
70456;DHT22;57916;51.996;5.180;2022-12-18T00:06:19;0.90;73.00
70456;DHT22;57916;51.996;5.180;2022-12-18T00:08:47;0.90;73.00
70456;DHT22;57916;51.996;5.180;2022-12-18T00:11:17;0.90;73.20
70456;DHT22;57916;51.996;5.180;2022-12-18T00:13:45;0.90;73.30
70456;DHT22;57916;51.996;5.180;2022-12-18T00:16:14;0.90;73.30
70456;DHT22;57916;51.996;5.180;2022-12-18T00:18:43;0.90;73.10
70456;DHT22;57916;51.996;5.180;2022-12-18T00:21:11;0.80;73.00
70456;DHT22;57916;51.996;5.180;2022-12-18T00:23:39;0.80;73.20
70456;DHT22;57916;51.996;5.180;2022-12-18T00:26:12;0.80;73.30
70456;DHT22;57916;51.996;5.180;2022-12-18T00:28:42;0.80;73.20
70456;DHT22;57916;51.996;5.180;2022-12-18T00:31:11;0.80;73.10
70456;DHT22;57916;51.996;5.180;2022-12-18T00:33:40;0.80;72.80
70456;DHT22;57916;51.996;5.180;2022-12-18T00:36:13;0.80;72.80
70456;DHT22;57916;51.996;5.180;2022-12-18T00:38:40;0.80;72.80
70456;DHT22;57916;51.996;5.180;2022-12-18T00:41:09;0.90;72.90
70456;DHT22;57916;51.996;5.180;2022-12-18T00:43:38;0.80;72.70
70456;DHT22;57916;51.996;5.180;2022-12-18T00:46:06;0.80;72.70
70456;DHT22;57916;51.996;5.180;2022-12-18T00:48:33;0.70;72.70
70456;DHT22;57916;51.996;5.180;2022-12-18T00:51:00;0.70;72.90
70456;DHT22;57916;51.996;5.180;2022-12-18T00:53:27;0.70;73.00
70456;DHT22;57916;51.996;5.180;2022-12-18T00:55:55;0.70;73.20
70456;DHT22;57916;51.996;5.180;2022-12-18T00:58:22;0.60;73.10
70456;DHT22;57916;51.996;5.180;2022-12-18T01:00:49;0.60;73.10
70456;DHT22;57916;51.996;5.180;2022-12-18T01:03:16;0.70;73.30
70456;DHT22;57916;51.996;5.180;2022-12-18T01:05:43;0.70;73.30
70456;DHT22;57916;51.996;5.180;2022-12-18T01:08:10;0.70;73.20
70456;DHT22;57916;51.996;5.180;2022-12-18T01:10:40;0.80;73.30
70456;DHT22;57916;51.996;5.180;2022-12-18T01:13:08;0.80;73.10
70456;DHT22;57916;51.996;5.180;2022-12-18T01:15:35;0.80;72.90
70456;DHT22;57916;51.996;5.180;2022-12-18T01:18:02;0.80;72.80
70456;DHT22;57916;51.996;5.180;2022-12-18T01:20:29;0.70;72.70
70456;DHT22;57916;51.996;5.180;2022-12-18T01:22:57;0.70;73.00
70456;DHT22;57916;51.996;5.180;2022-12-18T01:25:24;0.70;72.90
70456;DHT22;57916;51.996;5.180;2022-12-18T01:27:50;0.80;72.80
70456;DHT22;57916;51.996;5.180;2022-12-18T01:30:18;0.70;72.80
70456;DHT22;57916;51.996;5.180;2022-12-18T01:32:45;0.70;72.60
70456;DHT22;57916;51.996;5.180;2022-12-18T01:35:11;0.70;72.60
70456;DHT22;57916;51.996;5.180;2022-12-18T01:37:38;0.60;72.50
70456;DHT22;57916;51.996;5.180;2022-12-18T01:40:06;0.50;72.70
70456;DHT22;57916;51.996;5.180;2022-12-18T01:42:33;0.50;72.80
70456;DHT22;57916;51.996;5.180;2022-12-18T01:47:52;0.50;72.80
70456;DHT22;57916;51.996;5.180;2022-12-18T01:50:35;0.40;72.80
70456;DHT22;57916;51.996;5.180;2022-12-18T01:53:07;0.40;72.80
70456;DHT22;57916;51.996;5.180;2022-12-18T01:55:42;0.40;72.70
70456;DHT22;57916;51.996;5.180;2022-12-18T01:58:09;0.40;72.70
70456;DHT22;57916;51.996;5.180;2022-12-18T02:00:36;0.40;72.70
70456;DHT22;57916;51.996;5.180;2022-12-18T02:03:03;0.40;72.50
70456;DHT22;57916;51.996;5.180;2022-12-18T02:08:40;0.50;72.20
70456;DHT22;57916;51.996;5.180;2022-12-18T02:11:39;0.60;71.80
70456;DHT22;57916;51.996;5.180;2022-12-18T02:17:10;0.70;71.20
70456;DHT22;57916;51.996;5.180;2022-12-18T02:22:34;0.80;70.40
70456;DHT22;57916;51.996;5.180;2022-12-18T02:25:18;0.80;70.30
70456;DHT22;57916;51.996;5.180;2022-12-18T02:27:50;0.90;70.20
70456;DHT22;57916;51.996;5.180;2022-12-18T02:30:19;0.90;69.80
70456;DHT22;57916;51.996;5.180;2022-12-18T02:32:50;0.90;69.70
70456;DHT22;57916;51.996;5.180;2022-12-18T02:35:24;0.90;69.40
70456;DHT22;57916;51.996;5.180;2022-12-18T02:37:55;0.80;69.30
70456;DHT22;57916;51.996;5.180;2022-12-18T02:40:25;0.80;69.40
70456;DHT22;57916;51.996;5.180;2022-12-18T02:42:53;1.00;69.30
70456;DHT22;57916;51.996;5.180;2022-12-18T02:45:20;1.00;68.80
70456;DHT22;57916;51.996;5.180;2022-12-18T02:47:49;1.00;68.40
70456;DHT22;57916;51.996;5.180;2022-12-18T02:50:19;1.00;68.30
70456;DHT22;57916;51.996;5.180;2022-12-18T02:58:57;1.10;67.80
70456;DHT22;57916;51.996;5.180;2022-12-18T03:01:34;1.10;67.10
70456;DHT22;57916;51.996;5.180;2022-12-18T03:04:35;1.10;66.80
70456;DHT22;57916;51.996;5.180;2022-12-18T03:07:09;1.10;66.60
70456;DHT22;57916;51.996;5.180;2022-12-18T03:09:43;1.10;66.50
70456;DHT22;57916;51.996;5.180;2022-12-18T03:12:31;1.10;66.40
70456;DHT22;57916;51.996;5.180;2022-12-18T03:15:03;1.10;67.40
70456;DHT22;57916;51.996;5.180;2022-12-18T03:17:32;1.00;66.50
70456;DHT22;57916;51.996;5.180;2022-12-18T03:20:10;1.00;66.60
70456;DHT22;57916;51.996;5.180;2022-12-18T03:22:40;0.90;66.80
70456;DHT22;57916;51.996;5.180;2022-12-18T03:25:11;0.90;66.80
70456;DHT22;57916;51.996;5.180;2022-12-18T03:27:44;0.80;66.80
70456;DHT22;57916;51.996;5.180;2022-12-18T03:30:15;0.80;66.70
70456;DHT22;57916;51.996;5.180;2022-12-18T03:35:53;0.60;66.70
70456;DHT22;57916;51.996;5.180;2022-12-18T03:38:21;0.50;66.90
70456;DHT22;57916;51.996;5.180;2022-12-18T03:43:51;0.40;67.10
70456;DHT22;57916;51.996;5.180;2022-12-18T03:52:05;0.20;67.50
70456;DHT22;57916;51.996;5.180;2022-12-18T03:54:34;0.20;67.50
70456;DHT22;57916;51.996;5.180;2022-12-18T03:57:21;0.20;67.50
70456;DHT22;57916;51.996;5.180;2022-12-18T03:59:56;0.20;67.40
70456;DHT22;57916;51.996;5.180;2022-12-18T04:02:29;0.20;67.30
70456;DHT22;57916;51.996;5.180;2022-12-18T04:05:03;0.10;67.20
70456;DHT22;57916;51.996;5.180;2022-12-18T04:07:33;0.10;67.20
70456;DHT22;57916;51.996;5.180;2022-12-18T04:10:02;0.00;67.20
70456;DHT22;57916;51.996;5.180;2022-12-18T04:12:31;0.00;67.10
70456;DHT22;57916;51.996;5.180;2022-12-18T04:14:58;0.00;67.20
70456;DHT22;57916;51.996;5.180;2022-12-18T04:17:25;-0.10;67.40
70456;DHT22;57916;51.996;5.180;2022-12-18T04:19:52;-0.10;67.50
70456;DHT22;57916;51.996;5.180;2022-12-18T04:22:19;-0.20;67.70
70456;DHT22;57916;51.996;5.180;2022-12-18T04:24:50;-0.20;67.80
70456;DHT22;57916;51.996;5.180;2022-12-18T04:27:26;-0.20;67.90
70456;DHT22;57916;51.996;5.180;2022-12-18T04:29:54;-0.30;68.10
70456;DHT22;57916;51.996;5.180;2022-12-18T04:32:20;-0.30;68.70
70456;DHT22;57916;51.996;5.180;2022-12-18T04:34:48;-0.30;68.20
70456;DHT22;57916;51.996;5.180;2022-12-18T04:37:15;-0.30;68.30
70456;DHT22;57916;51.996;5.180;2022-12-18T04:39:43;-0.30;68.20
70456;DHT22;57916;51.996;5.180;2022-12-18T04:42:18;-0.30;68.20
70456;DHT22;57916;51.996;5.180;2022-12-18T04:44:45;-0.30;69.00
70456;DHT22;57916;51.996;5.180;2022-12-18T04:47:12;-0.30;68.20
70456;DHT22;57916;51.996;5.180;2022-12-18T04:49:39;-0.40;67.90
70456;DHT22;57916;51.996;5.180;2022-12-18T04:52:07;-0.40;67.80
70456;DHT22;57916;51.996;5.180;2022-12-18T04:54:33;-0.40;67.90
70456;DHT22;57916;51.996;5.180;2022-12-18T04:57:00;-0.40;67.90
70456;DHT22;57916;51.996;5.180;2022-12-18T04:59:27;-0.40;67.90
70456;DHT22;57916;51.996;5.180;2022-12-18T05:01:54;-0.40;67.90
70456;DHT22;57916;51.996;5.180;2022-12-18T05:04:21;-0.40;67.70
70456;DHT22;57916;51.996;5.180;2022-12-18T05:06:48;-0.40;67.70
70456;DHT22;57916;51.996;5.180;2022-12-18T05:09:15;-0.40;67.50
70456;DHT22;57916;51.996;5.180;2022-12-18T05:11:42;-0.40;67.40
70456;DHT22;57916;51.996;5.180;2022-12-18T05:14:10;-0.30;68.40
70456;DHT22;57916;51.996;5.180;2022-12-18T05:16:37;-0.30;67.50
70456;DHT22;57916;51.996;5.180;2022-12-18T05:19:04;-0.40;67.30
70456;DHT22;57916;51.996;5.180;2022-12-18T05:21:31;-0.40;67.30
70456;DHT22;57916;51.996;5.180;2022-12-18T05:23:58;-0.30;67.30
70456;DHT22;57916;51.996;5.180;2022-12-18T05:26:25;-0.30;67.30
70456;DHT22;57916;51.996;5.180;2022-12-18T05:28:52;-0.30;67.20
70456;DHT22;57916;51.996;5.180;2022-12-18T05:31:18;-0.40;67.20
70456;DHT22;57916;51.996;5.180;2022-12-18T05:33:45;-0.40;67.30
70456;DHT22;57916;51.996;5.180;2022-12-18T05:36:12;-0.40;67.30
70456;DHT22;57916;51.996;5.180;2022-12-18T05:38:39;-0.40;67.40
70456;DHT22;57916;51.996;5.180;2022-12-18T05:41:08;-0.40;67.30
70456;DHT22;57916;51.996;5.180;2022-12-18T05:43:36;-0.30;67.40
70456;DHT22;57916;51.996;5.180;2022-12-18T05:46:06;-0.30;67.20
70456;DHT22;57916;51.996;5.180;2022-12-18T05:48:34;-0.30;67.00
70456;DHT22;57916;51.996;5.180;2022-12-18T05:51:09;-0.30;66.90
70456;DHT22;57916;51.996;5.180;2022-12-18T05:53:37;-0.30;66.80
70456;DHT22;57916;51.996;5.180;2022-12-18T05:56:07;-0.20;66.70
70456;DHT22;57916;51.996;5.180;2022-12-18T05:58:34;-0.30;66.70
70456;DHT22;57916;51.996;5.180;2022-12-18T06:01:19;-0.30;66.70
70456;DHT22;57916;51.996;5.180;2022-12-18T06:03:46;-0.30;66.70
70456;DHT22;57916;51.996;5.180;2022-12-18T06:06:15;-0.30;66.50
70456;DHT22;57916;51.996;5.180;2022-12-18T06:08:43;-0.40;66.60
70456;DHT22;57916;51.996;5.180;2022-12-18T06:11:12;-0.40;66.70
70456;DHT22;57916;51.996;5.180;2022-12-18T06:13:39;-0.40;66.60
70456;DHT22;57916;51.996;5.180;2022-12-18T06:16:07;-0.40;66.50
70456;DHT22;57916;51.996;5.180;2022-12-18T06:18:38;-0.40;66.50
70456;DHT22;57916;51.996;5.180;2022-12-18T06:21:05;-0.40;66.50
70456;DHT22;57916;51.996;5.180;2022-12-18T06:23:32;-0.50;66.50
70456;DHT22;57916;51.996;5.180;2022-12-18T06:26:09;-0.50;66.50
70456;DHT22;57916;51.996;5.180;2022-12-18T06:28:37;-0.50;66.60
70456;DHT22;57916;51.996;5.180;2022-12-18T06:31:04;-0.50;66.80
70456;DHT22;57916;51.996;5.180;2022-12-18T06:33:32;-0.50;66.80
70456;DHT22;57916;51.996;5.180;2022-12-18T06:36:04;-0.50;66.80
70456;DHT22;57916;51.996;5.180;2022-12-18T06:38:33;-0.50;66.90
70456;DHT22;57916;51.996;5.180;2022-12-18T06:41:00;-0.50;66.90
70456;DHT22;57916;51.996;5.180;2022-12-18T06:43:27;-0.50;66.90
70456;DHT22;57916;51.996;5.180;2022-12-18T06:45:59;-0.40;67.00
70456;DHT22;57916;51.996;5.180;2022-12-18T06:48:27;-0.40;67.00
70456;DHT22;57916;51.996;5.180;2022-12-18T06:50:54;-0.40;67.00
70456;DHT22;57916;51.996;5.180;2022-12-18T06:53:21;-0.40;67.10
70456;DHT22;57916;51.996;5.180;2022-12-18T06:55:48;-0.50;67.20
70456;DHT22;57916;51.996;5.180;2022-12-18T06:58:15;-0.50;67.20
70456;DHT22;57916;51.996;5.180;2022-12-18T07:00:42;-0.50;67.30
70456;DHT22;57916;51.996;5.180;2022-12-18T07:03:10;-0.50;67.40
70456;DHT22;57916;51.996;5.180;2022-12-18T07:05:40;-0.50;67.30
70456;DHT22;57916;51.996;5.180;2022-12-18T07:08:07;-0.40;67.30
70456;DHT22;57916;51.996;5.180;2022-12-18T07:10:43;-0.40;67.30
70456;DHT22;57916;51.996;5.180;2022-12-18T07:13:15;-0.40;67.20
70456;DHT22;57916;51.996;5.180;2022-12-18T07:15:43;-0.40;67.20
70456;DHT22;57916;51.996;5.180;2022-12-18T07:18:12;-0.40;67.20
70456;DHT22;57916;51.996;5.180;2022-12-18T07:20:40;-0.40;67.20
70456;DHT22;57916;51.996;5.180;2022-12-18T07:23:07;-0.40;67.30
70456;DHT22;57916;51.996;5.180;2022-12-18T07:25:37;-0.40;67.30
70456;DHT22;57916;51.996;5.180;2022-12-18T07:28:04;-0.40;67.30
70456;DHT22;57916;51.996;5.180;2022-12-18T07:30:31;-0.40;67.40
70456;DHT22;57916;51.996;5.180;2022-12-18T07:32:58;-0.40;67.50
70456;DHT22;57916;51.996;5.180;2022-12-18T07:35:25;-0.40;67.60
70456;DHT22;57916;51.996;5.180;2022-12-18T07:37:52;-0.40;67.50
70456;DHT22;57916;51.996;5.180;2022-12-18T07:40:18;-0.50;67.60
70456;DHT22;57916;51.996;5.180;2022-12-18T07:42:45;-0.50;67.60
70456;DHT22;57916;51.996;5.180;2022-12-18T07:45:12;-0.50;67.60
70456;DHT22;57916;51.996;5.180;2022-12-18T07:47:39;-0.50;67.60
70456;DHT22;57916;51.996;5.180;2022-12-18T07:50:08;-0.50;67.60
70456;DHT22;57916;51.996;5.180;2022-12-18T07:52:35;-0.50;67.60
70456;DHT22;57916;51.996;5.180;2022-12-18T07:55:02;-0.50;67.70
70456;DHT22;57916;51.996;5.180;2022-12-18T07:57:29;-0.50;67.80
70456;DHT22;57916;51.996;5.180;2022-12-18T08:00:16;-0.50;67.80
70456;DHT22;57916;51.996;5.180;2022-12-18T08:02:43;-0.50;67.90
70456;DHT22;57916;51.996;5.180;2022-12-18T08:05:10;-0.40;67.90
70456;DHT22;57916;51.996;5.180;2022-12-18T08:07:37;-0.40;68.00
70456;DHT22;57916;51.996;5.180;2022-12-18T08:10:05;-0.40;68.00
70456;DHT22;57916;51.996;5.180;2022-12-18T08:12:32;-0.40;68.10
70456;DHT22;57916;51.996;5.180;2022-12-18T08:14:59;-0.30;68.20
70456;DHT22;57916;51.996;5.180;2022-12-18T08:17:26;-0.30;68.10
70456;DHT22;57916;51.996;5.180;2022-12-18T08:19:53;-0.30;68.10
70456;DHT22;57916;51.996;5.180;2022-12-18T08:22:20;-0.20;68.10
70456;DHT22;57916;51.996;5.180;2022-12-18T08:24:47;-0.20;68.10
70456;DHT22;57916;51.996;5.180;2022-12-18T08:27:14;-0.10;68.10
70456;DHT22;57916;51.996;5.180;2022-12-18T08:29:57;-0.10;68.00
70456;DHT22;57916;51.996;5.180;2022-12-18T08:32:28;-0.10;68.80
70456;DHT22;57916;51.996;5.180;2022-12-18T08:34:55;0.00;68.00
70456;DHT22;57916;51.996;5.180;2022-12-18T08:37:21;0.00;67.90
70456;DHT22;57916;51.996;5.180;2022-12-18T08:39:48;0.10;67.80
70456;DHT22;57916;51.996;5.180;2022-12-18T08:42:15;0.10;67.70
70456;DHT22;57916;51.996;5.180;2022-12-18T08:45:01;0.20;67.90
70456;DHT22;57916;51.996;5.180;2022-12-18T08:47:28;0.20;67.70
70456;DHT22;57916;51.996;5.180;2022-12-18T08:49:55;0.30;67.70
70456;DHT22;57916;51.996;5.180;2022-12-18T08:52:22;0.40;67.60
70456;DHT22;57916;51.996;5.180;2022-12-18T08:54:49;0.40;67.50
70456;DHT22;57916;51.996;5.180;2022-12-18T08:57:16;0.40;67.50
70456;DHT22;57916;51.996;5.180;2022-12-18T08:59:43;0.50;67.70
70456;DHT22;57916;51.996;5.180;2022-12-18T09:02:11;0.50;67.50
70456;DHT22;57916;51.996;5.180;2022-12-18T09:04:38;0.60;67.20
70456;DHT22;57916;51.996;5.180;2022-12-18T09:07:06;0.60;67.90
70456;DHT22;57916;51.996;5.180;2022-12-18T09:09:33;0.60;67.10
70456;DHT22;57916;51.996;5.180;2022-12-18T09:12:00;0.60;67.20
70456;DHT22;57916;51.996;5.180;2022-12-18T09:14:27;0.70;67.30
70456;DHT22;57916;51.996;5.180;2022-12-18T09:16:54;0.70;67.00
70456;DHT22;57916;51.996;5.180;2022-12-18T09:19:21;0.70;67.00
70456;DHT22;57916;51.996;5.180;2022-12-18T09:21:48;0.80;67.10
70456;DHT22;57916;51.996;5.180;2022-12-18T09:24:16;0.80;66.90
70456;DHT22;57916;51.996;5.180;2022-12-18T09:26:47;0.80;67.10
70456;DHT22;57916;51.996;5.180;2022-12-18T09:29:18;0.80;67.00
70456;DHT22;57916;51.996;5.180;2022-12-18T09:31:45;0.80;67.00
70456;DHT22;57916;51.996;5.180;2022-12-18T09:34:11;0.90;67.10
70456;DHT22;57916;51.996;5.180;2022-12-18T09:36:38;0.90;67.00
70456;DHT22;57916;51.996;5.180;2022-12-18T09:39:05;0.90;66.90
70456;DHT22;57916;51.996;5.180;2022-12-18T09:44:24;1.00;66.90
70456;DHT22;57916;51.996;5.180;2022-12-18T09:49:22;1.10;66.40
70456;DHT22;57916;51.996;5.180;2022-12-18T09:52:12;1.10;66.40
70456;DHT22;57916;51.996;5.180;2022-12-18T09:54:41;1.10;66.30
70456;DHT22;57916;51.996;5.180;2022-12-18T09:57:14;1.10;66.50
70456;DHT22;57916;51.996;5.180;2022-12-18T09:59:42;1.10;66.60
70456;DHT22;57916;51.996;5.180;2022-12-18T10:02:19;1.10;66.60
70456;DHT22;57916;51.996;5.180;2022-12-18T10:05:07;1.10;66.50
70456;DHT22;57916;51.996;5.180;2022-12-18T10:07:45;1.20;66.70
70456;DHT22;57916;51.996;5.180;2022-12-18T10:10:23;1.20;66.60
70456;DHT22;57916;51.996;5.180;2022-12-18T10:13:06;1.20;66.70
70456;DHT22;57916;51.996;5.180;2022-12-18T10:18:19;1.30;66.60
70456;DHT22;57916;51.996;5.180;2022-12-18T10:20:51;1.30;66.50
70456;DHT22;57916;51.996;5.180;2022-12-18T10:26:17;1.40;66.60
70456;DHT22;57916;51.996;5.180;2022-12-18T10:28:45;1.50;66.80
70456;DHT22;57916;51.996;5.180;2022-12-18T10:31:20;1.50;66.70
70456;DHT22;57916;51.996;5.180;2022-12-18T10:33:51;1.60;66.60
70456;DHT22;57916;51.996;5.180;2022-12-18T10:36:17;1.60;66.50
70456;DHT22;57916;51.996;5.180;2022-12-18T10:38:45;1.60;66.60
70456;DHT22;57916;51.996;5.180;2022-12-18T10:43:47;1.70;66.40
70456;DHT22;57916;51.996;5.180;2022-12-18T10:46:17;1.70;66.30
70456;DHT22;57916;51.996;5.180;2022-12-18T10:48:55;1.80;66.30
70456;DHT22;57916;51.996;5.180;2022-12-18T10:51:34;1.80;66.20
70456;DHT22;57916;51.996;5.180;2022-12-18T10:54:06;1.80;66.00
70456;DHT22;57916;51.996;5.180;2022-12-18T10:56:39;1.90;66.10
70456;DHT22;57916;51.996;5.180;2022-12-18T10:59:09;2.00;66.00
70456;DHT22;57916;51.996;5.180;2022-12-18T11:01:56;2.00;65.90
70456;DHT22;57916;51.996;5.180;2022-12-18T11:09:30;2.20;65.40
70456;DHT22;57916;51.996;5.180;2022-12-18T11:12:00;2.20;65.40
70456;DHT22;57916;51.996;5.180;2022-12-18T11:14:33;2.20;65.30
70456;DHT22;57916;51.996;5.180;2022-12-18T11:17:00;2.20;65.40
70456;DHT22;57916;51.996;5.180;2022-12-18T11:19:58;2.30;65.40
70456;DHT22;57916;51.996;5.180;2022-12-18T11:27:59;2.40;65.20
70456;DHT22;57916;51.996;5.180;2022-12-18T11:30:31;2.40;65.20
70456;DHT22;57916;51.996;5.180;2022-12-18T11:38:39;2.40;65.40
70456;DHT22;57916;51.996;5.180;2022-12-18T11:41:28;2.50;65.50
70456;DHT22;57916;51.996;5.180;2022-12-18T11:44:28;2.50;65.30
70456;DHT22;57916;51.996;5.180;2022-12-18T11:53:03;2.60;65.00
70456;DHT22;57916;51.996;5.180;2022-12-18T11:55:40;2.70;65.10
70456;DHT22;57916;51.996;5.180;2022-12-18T12:03:47;2.70;64.90
70456;DHT22;57916;51.996;5.180;2022-12-18T12:09:03;2.80;64.80
70456;DHT22;57916;51.996;5.180;2022-12-18T12:11:41;2.80;64.50
70456;DHT22;57916;51.996;5.180;2022-12-18T12:14:25;2.80;64.70
70456;DHT22;57916;51.996;5.180;2022-12-18T12:17:05;2.80;64.80
70456;DHT22;57916;51.996;5.180;2022-12-18T12:19:54;2.90;64.70
70456;DHT22;57916;51.996;5.180;2022-12-18T12:38:37;3.00;64.50
70456;DHT22;57916;51.996;5.180;2022-12-18T12:41:17;3.00;64.50
70456;DHT22;57916;51.996;5.180;2022-12-18T12:44:13;3.00;64.40
70456;DHT22;57916;51.996;5.180;2022-12-18T12:46:42;3.00;64.50
70456;DHT22;57916;51.996;5.180;2022-12-18T12:49:19;3.10;64.50
70456;DHT22;57916;51.996;5.180;2022-12-18T12:52:12;3.10;64.50
70456;DHT22;57916;51.996;5.180;2022-12-18T12:54:40;3.10;64.40
70456;DHT22;57916;51.996;5.180;2022-12-18T12:57:33;3.10;64.40
70456;DHT22;57916;51.996;5.180;2022-12-18T13:00:16;3.10;64.30
70456;DHT22;57916;51.996;5.180;2022-12-18T13:02:53;3.20;64.40
70456;DHT22;57916;51.996;5.180;2022-12-18T13:08:08;3.20;64.10
70456;DHT22;57916;51.996;5.180;2022-12-18T13:10:40;3.30;64.10
70456;DHT22;57916;51.996;5.180;2022-12-18T13:13:08;3.30;63.90
70456;DHT22;57916;51.996;5.180;2022-12-18T13:15:43;3.30;63.70
70456;DHT22;57916;51.996;5.180;2022-12-18T13:18:19;3.30;63.70
70456;DHT22;57916;51.996;5.180;2022-12-18T13:23:28;3.40;63.70
70456;DHT22;57916;51.996;5.180;2022-12-18T13:34:17;3.40;63.70
70456;DHT22;57916;51.996;5.180;2022-12-18T13:36:55;3.50;63.60
70456;DHT22;57916;51.996;5.180;2022-12-18T13:39:33;3.50;63.50
70456;DHT22;57916;51.996;5.180;2022-12-18T13:44:37;3.60;63.60
70456;DHT22;57916;51.996;5.180;2022-12-18T13:47:32;3.60;63.50
70456;DHT22;57916;51.996;5.180;2022-12-18T13:50:03;3.50;63.40
70456;DHT22;57916;51.996;5.180;2022-12-18T13:52:39;3.50;63.50
70456;DHT22;57916;51.996;5.180;2022-12-18T13:55:15;3.50;63.60
70456;DHT22;57916;51.996;5.180;2022-12-18T13:57:43;3.50;63.60
70456;DHT22;57916;51.996;5.180;2022-12-18T14:00:36;3.50;63.70
70456;DHT22;57916;51.996;5.180;2022-12-18T14:03:26;3.50;63.70
70456;DHT22;57916;51.996;5.180;2022-12-18T14:06:01;3.50;63.80
70456;DHT22;57916;51.996;5.180;2022-12-18T14:08:34;3.50;63.70
70456;DHT22;57916;51.996;5.180;2022-12-18T14:11:04;3.50;63.60
70456;DHT22;57916;51.996;5.180;2022-12-18T14:13:41;3.50;63.50
70456;DHT22;57916;51.996;5.180;2022-12-18T14:16:14;3.50;63.60
70456;DHT22;57916;51.996;5.180;2022-12-18T14:18:54;3.50;63.70
70456;DHT22;57916;51.996;5.180;2022-12-18T14:21:30;3.50;63.70
70456;DHT22;57916;51.996;5.180;2022-12-18T14:26:35;3.50;63.60
70456;DHT22;57916;51.996;5.180;2022-12-18T14:32:09;3.50;63.70
70456;DHT22;57916;51.996;5.180;2022-12-18T14:34:53;3.50;63.70
70456;DHT22;57916;51.996;5.180;2022-12-18T14:37:23;3.60;63.60
70456;DHT22;57916;51.996;5.180;2022-12-18T14:40:02;3.60;63.60
70456;DHT22;57916;51.996;5.180;2022-12-18T14:42:37;3.60;63.60
70456;DHT22;57916;51.996;5.180;2022-12-18T14:45:33;3.50;63.50
70456;DHT22;57916;51.996;5.180;2022-12-18T14:48:11;3.60;63.60
70456;DHT22;57916;51.996;5.180;2022-12-18T14:50:53;3.50;63.70
70456;DHT22;57916;51.996;5.180;2022-12-18T14:53:26;3.50;63.70
70456;DHT22;57916;51.996;5.180;2022-12-18T14:55:55;3.50;63.70
70456;DHT22;57916;51.996;5.180;2022-12-18T14:58:22;3.50;63.60
70456;DHT22;57916;51.996;5.180;2022-12-18T15:00:49;3.50;63.50
70456;DHT22;57916;51.996;5.180;2022-12-18T15:03:21;3.50;63.40
70456;DHT22;57916;51.996;5.180;2022-12-18T15:05:48;3.50;63.40
70456;DHT22;57916;51.996;5.180;2022-12-18T15:08:35;3.50;63.30
70456;DHT22;57916;51.996;5.180;2022-12-18T15:11:03;3.50;63.10
70456;DHT22;57916;51.996;5.180;2022-12-18T15:13:37;3.60;63.10
70456;DHT22;57916;51.996;5.180;2022-12-18T15:16:11;3.50;63.00
70456;DHT22;57916;51.996;5.180;2022-12-18T15:18:42;3.50;63.00
70456;DHT22;57916;51.996;5.180;2022-12-18T15:21:17;3.50;63.00
70456;DHT22;57916;51.996;5.180;2022-12-18T15:23:48;3.50;63.00
70456;DHT22;57916;51.996;5.180;2022-12-18T15:26:18;3.50;63.10
70456;DHT22;57916;51.996;5.180;2022-12-18T15:28:55;3.50;63.00
70456;DHT22;57916;51.996;5.180;2022-12-18T15:31:31;3.50;63.00
70456;DHT22;57916;51.996;5.180;2022-12-18T15:34:14;3.50;63.10
70456;DHT22;57916;51.996;5.180;2022-12-18T15:36:44;3.50;63.30
70456;DHT22;57916;51.996;5.180;2022-12-18T15:39:12;3.50;63.30
70456;DHT22;57916;51.996;5.180;2022-12-18T15:41:39;3.50;63.30
70456;DHT22;57916;51.996;5.180;2022-12-18T15:44:23;3.50;63.30
70456;DHT22;57916;51.996;5.180;2022-12-18T15:46:51;3.50;63.10
70456;DHT22;57916;51.996;5.180;2022-12-18T15:49:18;3.50;63.10
70456;DHT22;57916;51.996;5.180;2022-12-18T15:51:45;3.50;63.10
70456;DHT22;57916;51.996;5.180;2022-12-18T15:54:14;3.50;63.10
70456;DHT22;57916;51.996;5.180;2022-12-18T15:57:04;3.50;63.10
70456;DHT22;57916;51.996;5.180;2022-12-18T15:59:54;3.50;63.30
70456;DHT22;57916;51.996;5.180;2022-12-18T16:02:23;3.50;63.10
70456;DHT22;57916;51.996;5.180;2022-12-18T16:04:51;3.50;63.10
70456;DHT22;57916;51.996;5.180;2022-12-18T16:07:18;3.50;63.20
70456;DHT22;57916;51.996;5.180;2022-12-18T16:09:51;3.50;63.30
70456;DHT22;57916;51.996;5.180;2022-12-18T16:12:22;3.50;63.30
70456;DHT22;57916;51.996;5.180;2022-12-18T16:14:49;3.50;63.20
70456;DHT22;57916;51.996;5.180;2022-12-18T16:17:17;3.50;63.20
70456;DHT22;57916;51.996;5.180;2022-12-18T16:19:44;3.50;63.30
70456;DHT22;57916;51.996;5.180;2022-12-18T16:22:25;3.50;63.30
70456;DHT22;57916;51.996;5.180;2022-12-18T16:24:54;3.50;63.40
70456;DHT22;57916;51.996;5.180;2022-12-18T16:27:22;3.50;63.40
70456;DHT22;57916;51.996;5.180;2022-12-18T16:29:49;3.50;63.40
70456;DHT22;57916;51.996;5.180;2022-12-18T16:32:18;3.50;63.40
70456;DHT22;57916;51.996;5.180;2022-12-18T16:34:45;3.50;63.40
70456;DHT22;57916;51.996;5.180;2022-12-18T16:37:14;3.50;63.30
70456;DHT22;57916;51.996;5.180;2022-12-18T16:39:41;3.50;63.30
70456;DHT22;57916;51.996;5.180;2022-12-18T16:42:17;3.60;63.40
70456;DHT22;57916;51.996;5.180;2022-12-18T16:44:47;3.60;63.30
70456;DHT22;57916;51.996;5.180;2022-12-18T16:47:14;3.60;63.30
70456;DHT22;57916;51.996;5.180;2022-12-18T16:49:42;3.60;63.40
70456;DHT22;57916;51.996;5.180;2022-12-18T16:52:12;3.60;63.20
70456;DHT22;57916;51.996;5.180;2022-12-18T16:54:39;3.60;63.20
70456;DHT22;57916;51.996;5.180;2022-12-18T16:57:08;3.60;63.10
70456;DHT22;57916;51.996;5.180;2022-12-18T16:59:35;3.60;64.10
70456;DHT22;57916;51.996;5.180;2022-12-18T17:02:02;3.60;63.20
70456;DHT22;57916;51.996;5.180;2022-12-18T17:04:29;3.60;63.10
70456;DHT22;57916;51.996;5.180;2022-12-18T17:06:56;3.60;63.10
70456;DHT22;57916;51.996;5.180;2022-12-18T17:09:23;3.60;63.20
70456;DHT22;57916;51.996;5.180;2022-12-18T17:11:55;3.60;63.20
70456;DHT22;57916;51.996;5.180;2022-12-18T17:14:23;3.60;63.30
70456;DHT22;57916;51.996;5.180;2022-12-18T17:16:54;3.60;64.10
70456;DHT22;57916;51.996;5.180;2022-12-18T17:19:40;3.70;63.30
70456;DHT22;57916;51.996;5.180;2022-12-18T17:22:07;3.70;63.20
70456;DHT22;57916;51.996;5.180;2022-12-18T17:24:35;3.70;63.20
70456;DHT22;57916;51.996;5.180;2022-12-18T17:27:03;3.70;63.20
70456;DHT22;57916;51.996;5.180;2022-12-18T17:29:30;3.70;63.20
70456;DHT22;57916;51.996;5.180;2022-12-18T17:31:57;3.70;63.10
70456;DHT22;57916;51.996;5.180;2022-12-18T17:34:26;3.70;63.20
70456;DHT22;57916;51.996;5.180;2022-12-18T17:36:53;3.70;63.20
70456;DHT22;57916;51.996;5.180;2022-12-18T17:39:21;3.70;63.30
70456;DHT22;57916;51.996;5.180;2022-12-18T17:41:48;3.70;63.30
70456;DHT22;57916;51.996;5.180;2022-12-18T17:44:15;3.70;63.30
70456;DHT22;57916;51.996;5.180;2022-12-18T17:46:42;3.70;63.40
70456;DHT22;57916;51.996;5.180;2022-12-18T17:49:10;3.70;63.30
70456;DHT22;57916;51.996;5.180;2022-12-18T17:51:38;3.70;63.30
70456;DHT22;57916;51.996;5.180;2022-12-18T17:54:05;3.80;63.30
70456;DHT22;57916;51.996;5.180;2022-12-18T17:56:32;3.70;63.20
70456;DHT22;57916;51.996;5.180;2022-12-18T17:58:59;3.80;63.30